createdAt,value
2019-04-30T00:00:18.861Z,1004.71
2019-04-30T00:01:18.984Z,1004.71
2019-04-30T00:02:19.235Z,1004.71
2019-04-30T00:03:19.638Z,1004.72
2019-04-30T00:04:19.538Z,1004.69
2019-04-30T00:05:19.241Z,1004.67
2019-04-30T00:06:18.901Z,1004.69
2019-04-30T00:07:19.339Z,1004.71
2019-04-30T00:08:20.306Z,1004.68
2019-04-30T00:09:19.421Z,1004.68
2019-04-30T00:10:19.572Z,1004.68
2019-04-30T00:11:19.738Z,1004.73
2019-04-30T00:12:19.882Z,1004.67
2019-04-30T00:13:21.014Z,1004.62
2019-04-30T00:14:21.300Z,1004.65
2019-04-30T00:15:20.404Z,1004.69
2019-04-30T00:16:20.583Z,1004.65
2019-04-30T00:17:20.752Z,1004.64
2019-04-30T00:18:20.883Z,1004.62
2019-04-30T00:19:21.081Z,1004.64
2019-04-30T00:20:21.284Z,1004.60
2019-04-30T00:21:21.460Z,1004.62
2019-04-30T00:22:33.064Z,1004.59
2019-04-30T00:23:29.299Z,1004.60
2019-04-30T00:24:23.060Z,1004.63
2019-04-30T00:25:24.896Z,1004.61
2019-04-30T00:26:25.324Z,1004.59
2019-04-30T00:27:28.396Z,1004.63
2019-04-30T00:28:25.562Z,1004.59
2019-04-30T00:29:27.091Z,1004.60
2019-04-30T00:30:25.282Z,1004.60
2019-04-30T00:31:25.676Z,1004.62
2019-04-30T00:32:25.803Z,1004.63
2019-04-30T00:33:27.487Z,1004.60
2019-04-30T00:34:24.965Z,1004.54
2019-04-30T00:35:25.410Z,1004.63
2019-04-30T00:36:29.354Z,1004.56
2019-04-30T00:37:27.238Z,1004.55
2019-04-30T00:38:25.256Z,1004.58
2019-04-30T00:39:27.090Z,1004.53
2019-04-30T00:40:29.786Z,1004.51
2019-04-30T00:41:25.977Z,1004.59
2019-04-30T00:42:28.642Z,1004.52
2019-04-30T00:43:25.739Z,1004.49
2019-04-30T00:44:28.345Z,1004.43
2019-04-30T00:45:26.679Z,1004.43
2019-04-30T00:46:29.370Z,1004.46
2019-04-30T00:47:26.030Z,1004.47
2019-04-30T00:48:29.620Z,1004.49
2019-04-30T00:49:29.238Z,1004.43
2019-04-30T00:50:29.047Z,1004.42
2019-04-30T00:51:27.724Z,1004.44
2019-04-30T00:52:29.443Z,1004.32
2019-04-30T00:53:29.201Z,1004.40
2019-04-30T00:54:30.628Z,1004.38
2019-04-30T00:55:27.757Z,1004.40
2019-04-30T00:56:28.346Z,1004.40
2019-04-30T00:57:29.078Z,1004.39
2019-04-30T00:58:30.232Z,1004.44
2019-04-30T00:59:29.418Z,1004.38
2019-04-30T01:00:29.721Z,1004.41
2019-04-30T01:01:29.898Z,1004.38
2019-04-30T01:02:32.301Z,1004.40
2019-04-30T01:03:30.390Z,1004.43
2019-04-30T01:04:30.257Z,1004.36
2019-04-30T01:05:29.755Z,1004.37
2019-04-30T01:06:29.954Z,1004.32
2019-04-30T01:07:30.101Z,1004.32
2019-04-30T01:08:30.247Z,1004.37
2019-04-30T01:09:31.254Z,1004.31
2019-04-30T01:10:30.647Z,1004.35
2019-04-30T01:11:30.786Z,1004.38
2019-04-30T01:12:36.490Z,1004.36
2019-04-30T01:13:33.157Z,1004.32
2019-04-30T01:14:32.148Z,1004.30
2019-04-30T01:15:32.454Z,1004.30
2019-04-30T01:16:33.089Z,1004.35
2019-04-30T01:17:32.870Z,1004.30
2019-04-30T01:18:33.109Z,1004.27
2019-04-30T01:19:33.046Z,1004.25
2019-04-30T01:20:33.512Z,1004.28
2019-04-30T01:21:32.638Z,1004.20
2019-04-30T01:22:33.046Z,1004.20
2019-04-30T01:23:33.986Z,1004.19
2019-04-30T01:24:33.745Z,1004.28
2019-04-30T01:25:33.394Z,1004.27
2019-04-30T01:26:34.239Z,1004.19
2019-04-30T01:27:33.726Z,1004.16
2019-04-30T01:28:33.896Z,1004.23
2019-04-30T01:29:40.791Z,1004.23
2019-04-30T01:30:35.225Z,1004.23
2019-04-30T01:31:37.428Z,1004.17
2019-04-30T01:32:36.587Z,1004.17
2019-04-30T01:33:35.732Z,1004.18
2019-04-30T01:34:34.991Z,1004.19
2019-04-30T01:35:35.747Z,1004.20
2019-04-30T01:36:35.426Z,1004.22
2019-04-30T01:37:35.576Z,1004.20
2019-04-30T01:38:35.730Z,1004.14
2019-04-30T01:39:35.879Z,1004.21
2019-04-30T01:40:36.023Z,1004.21
2019-04-30T01:41:36.199Z,1004.20
2019-04-30T01:42:36.341Z,1004.18
2019-04-30T01:43:36.499Z,1004.13
2019-04-30T01:44:36.640Z,1004.15
2019-04-30T01:45:38.587Z,1004.21
2019-04-30T01:46:39.006Z,1004.14
2019-04-30T01:47:37.186Z,1004.15
2019-04-30T01:48:39.197Z,1004.13
2019-04-30T01:49:42.867Z,1004.20
2019-04-30T01:50:42.083Z,1004.23
2019-04-30T01:51:38.686Z,1004.21
2019-04-30T01:52:41.135Z,1004.25
2019-04-30T01:53:38.687Z,1004.24
2019-04-30T01:54:39.407Z,1004.20
2019-04-30T01:55:39.034Z,1004.23
2019-04-30T01:56:40.749Z,1004.21
2019-04-30T01:57:39.056Z,1004.26
2019-04-30T01:58:40.107Z,1004.18
2019-04-30T01:59:39.364Z,1004.27
2019-04-30T02:00:39.530Z,1004.23
2019-04-30T02:01:39.715Z,1004.28
2019-04-30T02:02:39.905Z,1004.21
2019-04-30T02:03:40.211Z,1004.29
2019-04-30T02:04:41.290Z,1004.23
2019-04-30T02:05:40.440Z,1004.27
2019-04-30T02:06:40.599Z,1004.22
2019-04-30T02:07:41.749Z,1004.31
2019-04-30T02:08:41.004Z,1004.28
2019-04-30T02:09:41.759Z,1004.30
2019-04-30T02:10:42.245Z,1004.24
2019-04-30T02:11:41.627Z,1004.31
2019-04-30T02:12:41.806Z,1004.34
2019-04-30T02:13:41.981Z,1004.26
2019-04-30T02:14:42.151Z,1004.23
2019-04-30T02:15:43.255Z,1004.25
2019-04-30T02:16:42.518Z,1004.33
2019-04-30T02:17:42.766Z,1004.25
2019-04-30T02:18:42.933Z,1004.32
2019-04-30T02:19:54.077Z,1004.32
2019-04-30T02:20:45.233Z,1004.28
2019-04-30T02:21:43.375Z,1004.32
2019-04-30T02:22:44.256Z,1004.22
2019-04-30T02:23:43.700Z,1004.32
2019-04-30T02:24:43.873Z,1004.26
2019-04-30T02:25:44.062Z,1004.29
2019-04-30T02:26:44.239Z,1004.22
2019-04-30T02:27:44.412Z,1004.26
2019-04-30T02:28:44.619Z,1004.27
2019-04-30T02:29:44.790Z,1004.30
2019-04-30T02:30:44.961Z,1004.21
2019-04-30T02:31:45.132Z,1004.33
2019-04-30T02:32:45.294Z,1004.27
2019-04-30T02:33:45.487Z,1004.36
2019-04-30T02:34:45.650Z,1004.27
2019-04-30T02:35:45.800Z,1004.27
2019-04-30T02:36:45.960Z,1004.27
2019-04-30T02:37:46.084Z,1004.30
2019-04-30T02:38:46.368Z,1004.29
2019-04-30T02:39:46.545Z,1004.33
2019-04-30T02:40:49.345Z,1004.32
2019-04-30T02:41:46.852Z,1004.32
2019-04-30T02:42:49.752Z,1004.33
2019-04-30T02:43:49.731Z,1004.26
2019-04-30T02:44:50.381Z,1004.26
2019-04-30T02:45:49.843Z,1004.24
2019-04-30T02:46:50.426Z,1004.23
2019-04-30T02:47:50.003Z,1004.23
2019-04-30T02:48:50.425Z,1004.21
2019-04-30T02:49:50.021Z,1004.22
2019-04-30T02:50:50.455Z,1004.24
2019-04-30T02:51:49.970Z,1004.27
2019-04-30T02:52:50.763Z,1004.22
2019-04-30T02:53:50.525Z,1004.29
2019-04-30T02:54:50.193Z,1004.25
2019-04-30T02:55:49.969Z,1004.25
2019-04-30T02:56:50.882Z,1004.24
2019-04-30T02:57:50.672Z,1004.21
2019-04-30T02:58:50.533Z,1004.24
2019-04-30T02:59:51.131Z,1004.25
2019-04-30T03:00:50.234Z,1004.19
2019-04-30T03:01:50.424Z,1004.20
2019-04-30T03:02:50.928Z,1004.24
2019-04-30T03:03:50.720Z,1004.24
2019-04-30T03:04:50.892Z,1004.24
2019-04-30T03:05:51.080Z,1004.24
2019-04-30T03:06:51.248Z,1004.24
2019-04-30T03:07:53.361Z,1004.24
2019-04-30T03:08:52.536Z,1004.24
2019-04-30T03:09:51.774Z,1004.23
2019-04-30T03:10:52.906Z,1004.22
2019-04-30T03:11:53.146Z,1004.22
2019-04-30T03:12:52.384Z,1004.21
2019-04-30T03:13:52.518Z,1004.21
2019-04-30T03:14:53.686Z,1004.24
2019-04-30T03:15:53.267Z,1004.21
2019-04-30T03:16:53.425Z,1004.17
2019-04-30T03:17:54.141Z,1004.21
2019-04-30T03:18:53.255Z,1004.17
2019-04-30T03:19:53.399Z,1004.19
2019-04-30T03:20:53.552Z,1004.16
2019-04-30T03:21:53.738Z,1004.20
2019-04-30T03:22:53.941Z,1004.16
2019-04-30T03:23:54.124Z,1004.14
2019-04-30T03:24:54.279Z,1004.13
2019-04-30T03:25:54.437Z,1004.09
2019-04-30T03:26:54.591Z,1004.10
2019-04-30T03:27:54.750Z,1004.12
2019-04-30T03:28:54.919Z,1004.12
2019-04-30T03:29:55.095Z,1004.14
2019-04-30T03:30:57.451Z,1004.12
2019-04-30T03:31:56.453Z,1004.15
2019-04-30T03:32:57.117Z,1004.07
2019-04-30T03:34:01.514Z,1004.08
2019-04-30T03:35:02.625Z,1004.05
2019-04-30T03:36:01.853Z,1004.12
2019-04-30T03:37:01.712Z,1004.08
2019-04-30T03:37:59.098Z,1004.09
2019-04-30T03:38:56.758Z,1004.12
2019-04-30T03:39:56.887Z,1004.07
2019-04-30T03:40:59.951Z,1004.09
2019-04-30T03:41:59.698Z,1004.09
2019-04-30T03:43:02.679Z,1004.13
2019-04-30T03:44:16.480Z,1004.14
2019-04-30T03:44:59.830Z,1004.05
2019-04-30T03:46:02.811Z,1004.06
2019-04-30T03:46:59.239Z,1004.07
2019-04-30T03:48:00.471Z,1004.04
2019-04-30T03:49:00.138Z,1004.08
2019-04-30T03:50:00.105Z,1004.10
2019-04-30T03:51:01.114Z,1004.11
2019-04-30T03:52:00.195Z,1004.12
2019-04-30T03:53:00.499Z,1004.16
2019-04-30T03:54:00.552Z,1004.11
2019-04-30T03:55:02.858Z,1004.09
2019-04-30T03:56:01.456Z,1004.15
2019-04-30T03:57:01.222Z,1004.15
2019-04-30T03:58:00.325Z,1004.15
2019-04-30T03:59:00.390Z,1004.16
2019-04-30T04:00:00.776Z,1004.14
2019-04-30T04:01:00.690Z,1004.17
2019-04-30T04:02:01.764Z,1004.14
2019-04-30T04:03:01.034Z,1004.18
2019-04-30T04:04:01.193Z,1004.23
2019-04-30T04:05:01.370Z,1004.19
2019-04-30T04:06:01.497Z,1004.25
2019-04-30T04:07:01.658Z,1004.21
2019-04-30T04:08:01.808Z,1004.19
2019-04-30T04:09:01.979Z,1004.19
2019-04-30T04:10:02.148Z,1004.18
2019-04-30T04:11:02.317Z,1004.15
2019-04-30T04:12:02.488Z,1004.20
2019-04-30T04:13:02.657Z,1004.25
2019-04-30T04:14:02.823Z,1004.22
2019-04-30T04:15:04.053Z,1004.17
2019-04-30T04:16:04.146Z,1004.20
2019-04-30T04:17:03.281Z,1004.20
2019-04-30T04:18:03.441Z,1004.19
2019-04-30T04:19:03.785Z,1004.18
2019-04-30T04:20:04.766Z,1004.21
2019-04-30T04:21:11.657Z,1004.19
2019-04-30T04:22:06.262Z,1004.19
2019-04-30T04:23:04.483Z,1004.20
2019-04-30T04:24:04.631Z,1004.23
2019-04-30T04:25:04.795Z,1004.14
2019-04-30T04:26:04.928Z,1004.16
2019-04-30T04:27:05.063Z,1004.16
2019-04-30T04:28:05.768Z,1004.26
2019-04-30T04:29:05.400Z,1004.26
2019-04-30T04:30:05.582Z,1004.20
2019-04-30T04:31:09.455Z,1004.28
2019-04-30T04:32:05.877Z,1004.19
2019-04-30T04:33:05.998Z,1004.19
2019-04-30T04:34:06.136Z,1004.19
2019-04-30T04:35:06.290Z,1004.21
2019-04-30T04:36:06.412Z,1004.21
2019-04-30T04:37:10.048Z,1004.19
2019-04-30T04:38:06.765Z,1004.22
2019-04-30T04:39:09.859Z,1004.11
2019-04-30T04:40:09.302Z,1004.16
2019-04-30T04:41:10.306Z,1004.17
2019-04-30T04:42:10.113Z,1004.17
2019-04-30T04:43:10.411Z,1004.23
2019-04-30T04:44:12.550Z,1004.22
2019-04-30T04:45:09.924Z,1004.24
2019-04-30T04:46:09.347Z,1004.16
2019-04-30T04:47:09.945Z,1004.12
2019-04-30T04:48:09.642Z,1004.20
2019-04-30T04:49:09.435Z,1004.25
2019-04-30T04:50:10.328Z,1004.24
2019-04-30T04:51:27.224Z,1004.22
2019-04-30T04:52:11.075Z,1004.27
2019-04-30T04:53:11.516Z,1004.24
2019-04-30T04:54:10.551Z,1004.27
2019-04-30T04:55:10.142Z,1004.32
2019-04-30T04:56:10.852Z,1004.30
2019-04-30T04:57:17.280Z,1004.33
2019-04-30T04:58:12.813Z,1004.31
2019-04-30T04:59:11.303Z,1004.32
2019-04-30T05:00:10.796Z,1004.38
2019-04-30T05:01:12.014Z,1004.32
2019-04-30T05:02:11.800Z,1004.37
2019-04-30T05:03:11.044Z,1004.32
2019-04-30T05:04:11.979Z,1004.38
2019-04-30T05:05:12.384Z,1004.33
2019-04-30T05:06:11.976Z,1004.38
2019-04-30T05:07:12.855Z,1004.32
2019-04-30T05:08:11.982Z,1004.32
2019-04-30T05:09:12.105Z,1004.40
2019-04-30T05:10:12.241Z,1004.38
2019-04-30T05:11:12.422Z,1004.40
2019-04-30T05:12:12.596Z,1004.37
2019-04-30T05:13:12.766Z,1004.39
2019-04-30T05:14:12.907Z,1004.45
2019-04-30T05:15:13.053Z,1004.45
2019-04-30T05:16:13.178Z,1004.42
2019-04-30T05:17:13.355Z,1004.48
2019-04-30T05:18:13.506Z,1004.47
2019-04-30T05:19:13.654Z,1004.49
2019-04-30T05:20:13.844Z,1004.47
2019-04-30T05:21:13.983Z,1004.48
2019-04-30T05:22:14.168Z,1004.51
2019-04-30T05:23:14.313Z,1004.54
2019-04-30T05:24:14.459Z,1004.51
2019-04-30T05:25:14.619Z,1004.50
2019-04-30T05:26:14.798Z,1004.51
2019-04-30T05:27:15.281Z,1004.56
2019-04-30T05:28:15.172Z,1004.48
2019-04-30T05:29:15.304Z,1004.53
2019-04-30T05:30:15.432Z,1004.50
2019-04-30T05:31:15.578Z,1004.47
2019-04-30T05:32:15.740Z,1004.49
2019-04-30T05:33:15.918Z,1004.50
2019-04-30T05:34:16.056Z,1004.48
2019-04-30T05:35:16.195Z,1004.47
2019-04-30T05:36:16.339Z,1004.49
2019-04-30T05:37:18.385Z,1004.50
2019-04-30T05:38:18.833Z,1004.49
2019-04-30T05:39:18.782Z,1004.50
2019-04-30T05:40:18.843Z,1004.51
2019-04-30T05:41:19.140Z,1004.51
2019-04-30T05:42:18.464Z,1004.55
2019-04-30T05:43:19.212Z,1004.51
2019-04-30T05:44:18.535Z,1004.48
2019-04-30T05:45:19.405Z,1004.49
2019-04-30T05:46:19.653Z,1004.43
2019-04-30T05:47:19.715Z,1004.36
2019-04-30T05:48:19.262Z,1004.39
2019-04-30T05:49:20.245Z,1004.42
2019-04-30T05:50:20.099Z,1004.34
2019-04-30T05:51:21.325Z,1004.28
2019-04-30T05:52:19.995Z,1004.28
2019-04-30T05:53:20.108Z,1004.26
2019-04-30T05:54:19.348Z,1004.27
2019-04-30T05:55:19.947Z,1004.23
2019-04-30T05:56:21.284Z,1004.32
2019-04-30T05:57:19.839Z,1004.33
2019-04-30T05:58:21.777Z,1004.32
2019-04-30T05:59:20.641Z,1004.35
2019-04-30T06:00:21.230Z,1004.34
2019-04-30T06:01:20.453Z,1004.30
2019-04-30T06:02:21.282Z,1004.34
2019-04-30T06:03:28.185Z,1004.29
2019-04-30T06:04:23.007Z,1004.34
2019-04-30T06:05:21.209Z,1004.35
2019-04-30T06:06:22.268Z,1004.37
2019-04-30T06:07:21.503Z,1004.37
2019-04-30T06:08:22.287Z,1004.38
2019-04-30T06:09:31.124Z,1004.38
2019-04-30T06:10:23.986Z,1004.38
2019-04-30T06:11:23.167Z,1004.36
2019-04-30T06:12:22.392Z,1004.38
2019-04-30T06:13:22.523Z,1004.39
2019-04-30T06:14:22.651Z,1004.36
2019-04-30T06:15:23.295Z,1004.39
2019-04-30T06:16:23.031Z,1004.38
2019-04-30T06:17:23.164Z,1004.37
2019-04-30T06:18:23.303Z,1004.43
2019-04-30T06:19:23.427Z,1004.42
2019-04-30T06:20:23.592Z,1004.42
2019-04-30T06:21:23.712Z,1004.38
2019-04-30T06:22:23.849Z,1004.39
2019-04-30T06:23:23.992Z,1004.45
2019-04-30T06:24:24.127Z,1004.46
2019-04-30T06:25:31.682Z,1004.42
2019-04-30T06:26:26.500Z,1004.49
2019-04-30T06:27:24.691Z,1004.48
2019-04-30T06:28:24.813Z,1004.49
2019-04-30T06:29:24.945Z,1004.47
2019-04-30T06:30:25.287Z,1004.50
2019-04-30T06:31:32.182Z,1004.53
2019-04-30T06:32:26.522Z,1004.48
2019-04-30T06:33:25.745Z,1004.51
2019-04-30T06:34:25.866Z,1004.50
2019-04-30T06:35:26.019Z,1004.50
2019-04-30T06:36:26.193Z,1004.51
2019-04-30T06:37:26.314Z,1004.54
2019-04-30T06:38:26.437Z,1004.49
2019-04-30T06:39:28.727Z,1004.51
2019-04-30T06:40:26.689Z,1004.50
2019-04-30T06:41:27.286Z,1004.51
2019-04-30T06:42:27.024Z,1004.48
2019-04-30T06:43:28.742Z,1004.53
2019-04-30T06:44:37.012Z,1004.49
2019-04-30T06:45:29.551Z,1004.53
2019-04-30T06:46:28.815Z,1004.52
2019-04-30T06:47:33.186Z,1004.53
2019-04-30T06:48:30.153Z,1004.58
2019-04-30T06:49:29.393Z,1004.55
2019-04-30T06:50:29.320Z,1004.52
2019-04-30T06:51:30.774Z,1004.52
2019-04-30T06:52:29.409Z,1004.53
2019-04-30T06:53:30.180Z,1004.46
2019-04-30T06:54:29.308Z,1004.49
2019-04-30T06:55:30.937Z,1004.39
2019-04-30T06:56:29.691Z,1004.43
2019-04-30T06:57:29.826Z,1004.40
2019-04-30T06:58:30.306Z,1004.41
2019-04-30T06:59:30.167Z,1004.38
2019-04-30T07:00:33.704Z,1004.33
2019-04-30T07:01:31.587Z,1004.26
2019-04-30T07:02:31.036Z,1004.22
2019-04-30T07:03:32.079Z,1004.18
2019-04-30T07:04:31.159Z,1004.16
2019-04-30T07:05:31.312Z,1004.07
2019-04-30T07:06:36.708Z,1004.16
2019-04-30T07:07:38.956Z,1003.96
2019-04-30T07:08:39.547Z,1003.81
2019-04-30T07:09:48.825Z,1003.82
2019-04-30T07:10:34.073Z,1003.88
2019-04-30T07:11:32.305Z,1003.79
2019-04-30T07:12:34.104Z,1003.77
2019-04-30T07:13:33.581Z,1003.83
2019-04-30T07:14:33.818Z,1003.65
2019-04-30T07:15:33.059Z,1003.68
2019-04-30T07:16:33.218Z,1003.64
2019-04-30T07:17:33.368Z,1003.75
2019-04-30T07:18:33.520Z,1003.76
2019-04-30T07:19:50.211Z,1003.45
2019-04-30T07:20:35.886Z,1003.45
2019-04-30T07:21:36.581Z,1003.49
2019-04-30T07:23:38.589Z,1003.55
2019-04-30T07:24:34.674Z,1003.46
2019-04-30T07:25:34.825Z,1003.37
2019-04-30T07:26:35.018Z,1003.30
2019-04-30T07:27:35.183Z,1003.17
2019-04-30T07:28:44.717Z,1003.16
2019-04-30T07:29:39.199Z,1003.09
2019-04-30T07:30:35.683Z,1002.97
2019-04-30T07:31:35.824Z,1003.08
2019-04-30T07:32:35.969Z,1003.02
2019-04-30T07:33:36.163Z,1002.99
2019-04-30T07:34:37.160Z,1002.92
2019-04-30T07:35:39.770Z,1002.95
2019-04-30T07:36:48.395Z,1002.95
2019-04-30T07:37:39.784Z,1002.85
2019-04-30T07:38:45.632Z,1002.97
2019-04-30T07:39:39.344Z,1002.79
2019-04-30T07:40:39.073Z,1002.84
2019-04-30T07:41:40.267Z,1002.83
2019-04-30T07:42:44.516Z,1003.08
2019-04-30T07:43:40.024Z,1003.01
2019-04-30T07:44:39.533Z,1002.94
2019-04-30T07:45:40.304Z,1002.79
2019-04-30T07:46:43.862Z,1002.87
2019-04-30T07:47:40.764Z,1002.94
2019-04-30T07:48:40.281Z,1002.79
2019-04-30T07:49:49.972Z,1002.84
2019-04-30T07:50:41.409Z,1002.83
2019-04-30T07:51:41.678Z,1002.62
2019-04-30T07:52:57.605Z,1002.79
2019-04-30T07:53:42.032Z,1002.70
2019-04-30T07:54:40.258Z,1002.70
2019-04-30T07:55:40.400Z,1002.69
2019-04-30T07:56:41.700Z,1002.48
2019-04-30T07:57:41.696Z,1002.66
2019-04-30T07:58:40.812Z,1002.82
2019-04-30T07:59:40.994Z,1003.05
2019-04-30T08:00:41.162Z,1002.87
2019-04-30T08:02:00.202Z,1002.78
2019-04-30T08:02:43.659Z,1002.56
2019-04-30T08:03:42.831Z,1002.64
2019-04-30T08:04:41.787Z,1002.64
2019-04-30T08:05:42.826Z,1002.57
2019-04-30T08:06:42.098Z,1002.65
2019-04-30T08:07:42.292Z,1002.55
2019-04-30T08:08:42.476Z,1002.40
2019-04-30T08:09:36.841Z,1003.64
2019-04-30T08:09:42.725Z,1002.46
2019-04-30T08:10:42.890Z,1002.49
2019-04-30T08:11:43.819Z,1002.59
2019-04-30T08:12:45.067Z,1002.73
2019-04-30T08:13:43.600Z,1002.76
2019-04-30T08:14:43.508Z,1002.79
2019-04-30T08:15:43.651Z,1002.83
2019-04-30T08:16:43.789Z,1002.90
2019-04-30T08:17:44.049Z,1002.84
2019-04-30T08:18:44.221Z,1002.63
2019-04-30T08:19:44.817Z,1002.63
2019-04-30T08:20:44.586Z,1002.55
2019-04-30T08:21:44.728Z,1002.43
2019-04-30T08:22:44.889Z,1002.36
2019-04-30T08:23:45.029Z,1002.38
2019-04-30T08:24:45.225Z,1002.58
2019-04-30T08:25:45.396Z,1002.46
2019-04-30T08:26:45.555Z,1002.51
2019-04-30T08:27:45.706Z,1002.44
2019-04-30T08:28:45.872Z,1002.47
2019-04-30T08:29:46.057Z,1002.30
2019-04-30T08:30:46.235Z,1002.35
2019-04-30T08:31:48.994Z,1002.41
2019-04-30T08:32:46.636Z,1002.54
2019-04-30T08:33:48.924Z,1002.66
2019-04-30T08:34:47.338Z,1002.63
2019-04-30T08:35:47.138Z,1002.71
2019-04-30T08:36:48.891Z,1002.81
2019-04-30T08:37:49.508Z,1002.90
2019-04-30T08:38:49.519Z,1002.78
2019-04-30T08:39:49.693Z,1002.74
2019-04-30T08:40:56.144Z,1002.80
2019-04-30T08:41:50.288Z,1002.79
2019-04-30T08:42:49.765Z,1002.89
2019-04-30T08:43:49.834Z,1002.98
2019-04-30T08:44:49.884Z,1003.02
2019-04-30T08:45:49.024Z,1002.99
2019-04-30T08:46:49.227Z,1003.03
2019-04-30T08:47:50.369Z,1003.13
2019-04-30T08:48:51.609Z,1003.07
2019-04-30T08:49:50.871Z,1003.17
2019-04-30T08:50:50.263Z,1002.98
2019-04-30T08:51:50.748Z,1003.01
2019-04-30T08:52:51.009Z,1002.88
2019-04-30T08:53:50.383Z,1002.83
2019-04-30T08:54:50.538Z,1002.60
2019-04-30T08:55:50.700Z,1002.76
2019-04-30T08:56:50.827Z,1002.62
2019-04-30T08:57:50.974Z,1002.68
2019-04-30T08:58:51.124Z,1002.71
2019-04-30T08:59:51.251Z,1002.74
2019-04-30T09:00:51.437Z,1002.71
2019-04-30T09:01:51.567Z,1002.80
2019-04-30T09:02:51.728Z,1002.85
2019-04-30T09:03:51.914Z,1002.87
2019-04-30T09:04:52.073Z,1002.79
2019-04-30T09:05:52.239Z,1002.70
2019-04-30T09:06:53.340Z,1002.60
2019-04-30T09:07:52.603Z,1002.55
2019-04-30T09:08:52.777Z,1002.58
2019-04-30T09:09:52.930Z,1002.61
2019-04-30T09:10:53.119Z,1002.49
2019-04-30T09:11:55.561Z,1002.42
2019-04-30T09:12:54.409Z,1002.49
2019-04-30T09:13:53.533Z,1002.41
2019-04-30T09:14:53.686Z,1002.42
2019-04-30T09:15:53.817Z,1002.40
2019-04-30T09:16:54.006Z,1002.37
2019-04-30T09:18:03.207Z,1002.34
2019-04-30T09:18:56.416Z,1002.31
2019-04-30T09:19:54.839Z,1002.37
2019-04-30T09:21:03.443Z,1002.36
2019-04-30T09:21:55.996Z,1002.34
2019-04-30T09:22:55.121Z,1002.31
2019-04-30T09:23:55.279Z,1002.22
2019-04-30T09:24:55.417Z,1002.19
2019-04-30T09:25:55.558Z,1002.34
2019-04-30T09:26:55.752Z,1002.30
2019-04-30T09:27:55.911Z,1002.25
2019-04-30T09:28:56.353Z,1002.19
2019-04-30T09:29:56.255Z,1002.20
2019-04-30T09:30:58.654Z,1002.18
2019-04-30T09:31:56.646Z,1002.20
2019-04-30T09:32:56.814Z,1002.30
2019-04-30T09:34:00.653Z,1002.27
2019-04-30T09:34:58.747Z,1002.25
2019-04-30T09:35:59.549Z,1002.25
2019-04-30T09:36:58.883Z,1002.28
2019-04-30T09:38:01.408Z,1002.35
2019-04-30T09:39:01.545Z,1002.30
2019-04-30T09:39:59.214Z,1002.24
2019-04-30T09:40:59.376Z,1002.27
2019-04-30T09:41:59.617Z,1002.29
2019-04-30T09:43:00.444Z,1002.28
2019-04-30T09:43:59.758Z,1002.20
2019-04-30T09:44:59.886Z,1002.25
2019-04-30T09:45:59.346Z,1002.31
2019-04-30T09:47:00.191Z,1002.27
2019-04-30T09:47:59.364Z,1002.30
2019-04-30T09:48:59.872Z,1002.23
2019-04-30T09:50:00.702Z,1002.19
2019-04-30T09:51:01.000Z,1002.23
2019-04-30T09:52:01.362Z,1002.22
2019-04-30T09:53:01.299Z,1002.25
2019-04-30T09:54:03.149Z,1002.25
2019-04-30T09:55:02.085Z,1002.20
2019-04-30T09:56:00.717Z,1002.21
2019-04-30T09:57:00.872Z,1002.19
2019-04-30T09:58:01.038Z,1002.19
2019-04-30T09:59:01.196Z,1002.23
2019-04-30T10:00:01.324Z,1002.17
2019-04-30T10:01:01.531Z,1002.23
2019-04-30T10:02:01.694Z,1002.21
2019-04-30T10:03:02.063Z,1002.22
2019-04-30T10:04:02.347Z,1002.28
2019-04-30T10:05:02.797Z,1002.32
2019-04-30T10:06:02.486Z,1002.35
2019-04-30T10:07:03.354Z,1002.30
2019-04-30T10:08:02.863Z,1002.25
2019-04-30T10:09:03.019Z,1002.24
2019-04-30T10:10:03.168Z,1002.32
2019-04-30T10:11:03.307Z,1002.24
2019-04-30T10:12:03.449Z,1002.21
2019-04-30T10:13:03.603Z,1002.28
2019-04-30T10:14:03.780Z,1002.24
2019-04-30T10:15:03.917Z,1002.15
2019-04-30T10:16:04.065Z,1002.22
2019-04-30T10:17:04.849Z,1002.17
2019-04-30T10:18:04.366Z,1002.18
2019-04-30T10:19:04.540Z,1002.10
2019-04-30T10:20:04.705Z,1002.10
2019-04-30T10:21:05.863Z,1002.09
2019-04-30T10:22:05.041Z,1002.07
2019-04-30T10:23:05.860Z,1002.10
2019-04-30T10:24:14.777Z,1002.10
2019-04-30T10:25:09.274Z,1002.08
2019-04-30T10:26:05.823Z,1002.08
2019-04-30T10:27:10.497Z,1002.06
2019-04-30T10:28:10.035Z,1002.03
2019-04-30T10:29:06.433Z,1002.04
2019-04-30T10:30:06.563Z,1002.02
2019-04-30T10:31:06.742Z,1002.00
2019-04-30T10:32:08.697Z,1002.01
2019-04-30T10:33:07.058Z,1001.99
2019-04-30T10:34:07.198Z,1002.07
2019-04-30T10:35:07.331Z,1001.96
2019-04-30T10:36:09.295Z,1001.98
2019-04-30T10:37:09.006Z,1002.00
2019-04-30T10:38:09.716Z,1001.92
2019-04-30T10:39:08.864Z,1001.98
2019-04-30T10:40:10.084Z,1001.95
2019-04-30T10:41:08.901Z,1002.01
2019-04-30T10:42:09.504Z,1001.96
2019-04-30T10:43:09.034Z,1001.96
2019-04-30T10:44:09.790Z,1001.97
2019-04-30T10:45:09.790Z,1001.94
2019-04-30T10:46:10.123Z,1001.87
2019-04-30T10:47:09.423Z,1001.87
2019-04-30T10:48:10.509Z,1001.95
2019-04-30T10:49:09.658Z,1001.90
2019-04-30T10:50:10.061Z,1001.83
2019-04-30T10:51:11.037Z,1001.86
2019-04-30T10:52:10.158Z,1001.82
2019-04-30T10:53:12.422Z,1001.81
2019-04-30T10:54:23.192Z,1001.84
2019-04-30T10:55:12.764Z,1001.81
2019-04-30T10:56:11.072Z,1001.81
2019-04-30T10:57:11.201Z,1001.81
2019-04-30T10:58:11.409Z,1001.85
2019-04-30T10:59:11.588Z,1001.81
2019-04-30T11:00:12.370Z,1001.81
2019-04-30T11:01:11.911Z,1001.88
2019-04-30T11:02:12.097Z,1001.93
2019-04-30T11:03:19.914Z,1001.84
2019-04-30T11:04:14.486Z,1001.84
2019-04-30T11:05:12.603Z,1001.83
2019-04-30T11:06:13.376Z,1001.84
2019-04-30T11:07:12.920Z,1001.87
2019-04-30T11:08:13.070Z,1001.84
2019-04-30T11:09:13.260Z,1001.95
2019-04-30T11:10:14.371Z,1001.84
2019-04-30T11:11:13.630Z,1001.83
2019-04-30T11:12:13.797Z,1001.89
2019-04-30T11:13:13.962Z,1001.88
2019-04-30T11:14:14.162Z,1001.86
2019-04-30T11:15:14.333Z,1001.88
2019-04-30T11:16:15.624Z,1001.76
2019-04-30T11:17:15.758Z,1001.74
2019-04-30T11:18:14.980Z,1001.80
2019-04-30T11:19:15.268Z,1001.76
2019-04-30T11:20:15.457Z,1001.72
2019-04-30T11:21:15.600Z,1001.71
2019-04-30T11:22:15.689Z,1001.71
2019-04-30T11:23:15.952Z,1001.74
2019-04-30T11:24:16.276Z,1001.71
2019-04-30T11:25:16.395Z,1001.73
2019-04-30T11:26:16.989Z,1001.74
2019-04-30T11:27:17.255Z,1001.75
2019-04-30T11:28:17.172Z,1001.81
2019-04-30T11:29:17.100Z,1001.75
2019-04-30T11:30:21.254Z,1001.75
2019-04-30T11:31:19.382Z,1001.77
2019-04-30T11:32:17.608Z,1001.80
2019-04-30T11:33:17.864Z,1001.80
2019-04-30T11:34:17.884Z,1001.78
2019-04-30T11:35:20.602Z,1001.70
2019-04-30T11:36:19.400Z,1001.68
2019-04-30T11:37:19.403Z,1001.73
2019-04-30T11:38:20.347Z,1001.61
2019-04-30T11:39:19.820Z,1001.70
2019-04-30T11:40:31.044Z,1001.60
2019-04-30T11:41:30.036Z,1001.64
2019-04-30T11:42:21.400Z,1001.61
2019-04-30T11:43:20.197Z,1001.60
2019-04-30T11:44:30.246Z,1001.57
2019-04-30T11:45:22.016Z,1001.69
2019-04-30T11:46:20.151Z,1001.72
2019-04-30T11:47:20.302Z,1001.63
2019-04-30T11:48:20.472Z,1001.65
2019-04-30T11:49:21.395Z,1001.64
2019-04-30T11:50:20.775Z,1001.66
2019-04-30T11:51:20.946Z,1001.65
2019-04-30T11:52:21.136Z,1001.64
2019-04-30T11:53:27.598Z,1001.59
2019-04-30T11:54:23.486Z,1001.63
2019-04-30T11:55:21.713Z,1001.59
2019-04-30T11:56:21.885Z,1001.50
2019-04-30T11:57:23.060Z,1001.54
2019-04-30T11:58:22.234Z,1001.53
2019-04-30T11:59:22.407Z,1001.56
2019-04-30T12:00:22.581Z,1001.60
2019-04-30T12:01:22.785Z,1001.54
2019-04-30T12:02:22.953Z,1001.55
2019-04-30T12:03:23.129Z,1001.56
2019-04-30T12:04:23.288Z,1001.45
2019-04-30T12:05:23.439Z,1001.50
2019-04-30T12:06:23.606Z,1001.49
2019-04-30T12:07:23.744Z,1001.51